createdAt,value
2023-05-17T00:00:32.693Z,1215.3
2023-05-17T00:03:32.721Z,1213.6
2023-05-17T00:06:32.878Z,1215.5
2023-05-17T00:09:32.700Z,1205.9
2023-05-17T00:12:32.677Z,1208.0
2023-05-17T00:15:32.630Z,1209.7
2023-05-17T00:18:32.882Z,1218.1
2023-05-17T00:21:32.627Z,1244.3
2023-05-17T00:24:32.695Z,1233.8
2023-05-17T00:27:32.634Z,1248.3
2023-05-17T00:30:32.825Z,1240.1
2023-05-17T00:33:32.726Z,1251.1
2023-05-17T00:36:32.630Z,1241.6
2023-05-17T00:39:32.708Z,1234.2
2023-05-17T00:42:32.679Z,1224.6
2023-05-17T00:45:32.701Z,1241.8
2023-05-17T00:48:33.063Z,1250.6
2023-05-17T00:51:32.648Z,1261.5
2023-05-17T00:54:32.755Z,1272.0
2023-05-17T00:57:32.701Z,1275.2
2023-05-17T01:00:32.698Z,1284.4
2023-05-17T01:03:32.906Z,1261.5
2023-05-17T01:06:32.700Z,1281.7
2023-05-17T01:09:32.719Z,1282.0
2023-05-17T01:12:32.691Z,1297.4
2023-05-17T01:15:32.628Z,1304.3
2023-05-17T01:18:32.975Z,1302.6
2023-05-17T01:21:32.744Z,1307.2
2023-05-17T01:24:32.704Z,1329.3
2023-05-17T01:27:32.703Z,1331.3
2023-05-17T01:30:32.682Z,1316.4
2023-05-17T01:33:33.151Z,1316.6
2023-05-17T01:36:32.657Z,1305.4
2023-05-17T01:39:32.689Z,1285.9
2023-05-17T01:42:32.652Z,1280.8
2023-05-17T01:45:32.743Z,1264.6
2023-05-17T01:48:32.888Z,1270.8
2023-05-17T01:51:32.663Z,1269.1
2023-05-17T01:54:32.618Z,1270.4
2023-05-17T01:57:32.728Z,1259.2
2023-05-17T02:00:32.750Z,1237.7
2023-05-17T02:03:32.826Z,1232.3
2023-05-17T02:06:32.704Z,1250.3
2023-05-17T02:09:32.647Z,1251.6
2023-05-17T02:12:32.689Z,1229.6
2023-05-17T02:15:32.662Z,1217.1
2023-05-17T02:18:33.025Z,1200.9
2023-05-17T02:21:32.663Z,1220.6
2023-05-17T02:24:32.674Z,1207.2
2023-05-17T02:27:32.654Z,1216.0
2023-05-17T02:30:34.406Z,1212.8
2023-05-17T02:33:33.185Z,1201.5
2023-05-17T02:36:32.669Z,1233.7
2023-05-17T02:39:32.666Z,1221.5
2023-05-17T02:42:32.665Z,1215.2
2023-05-17T02:45:32.667Z,1232.0
2023-05-17T02:48:32.737Z,1235.6
2023-05-17T02:51:32.698Z,1234.7
2023-05-17T02:54:32.608Z,1220.3
2023-05-17T02:57:32.658Z,1215.3
2023-05-17T03:00:32.674Z,1211.5
2023-05-17T03:03:33.001Z,1199.5
2023-05-17T03:06:32.742Z,1222.0
2023-05-17T03:09:32.642Z,1234.5
2023-05-17T03:12:32.673Z,1221.5
2023-05-17T03:15:32.641Z,1239.1
2023-05-17T03:18:32.935Z,1226.5
2023-05-17T03:21:32.634Z,1236.6
2023-05-17T03:24:32.675Z,1248.1
2023-05-17T03:27:32.681Z,1251.9
2023-05-17T03:30:32.677Z,1279.2
2023-05-17T03:33:32.900Z,1329.6
2023-05-17T03:36:32.678Z,1305.0
2023-05-17T03:39:32.668Z,1310.3
2023-05-17T03:42:32.662Z,1305.2
2023-05-17T03:45:32.611Z,1283.8
2023-05-17T03:48:35.261Z,1268.6
2023-05-17T03:51:32.682Z,1286.2
2023-05-17T03:54:32.856Z,1276.7
2023-05-17T03:57:32.685Z,1291.2
2023-05-17T04:00:32.695Z,1286.4
2023-05-17T04:03:36.016Z,1280.0
2023-05-17T04:06:32.625Z,1281.5
2023-05-17T04:09:34.808Z,1296.5
2023-05-17T04:12:32.734Z,1303.6
2023-05-17T04:15:32.661Z,1325.9
2023-05-17T04:18:33.029Z,1354.3
2023-05-17T04:21:32.649Z,1308.9
2023-05-17T04:24:32.679Z,1336.6
2023-05-17T04:27:35.580Z,1376.7
2023-05-17T04:30:32.721Z,1357.6
2023-05-17T04:33:32.930Z,1421.7
2023-05-17T04:36:32.675Z,1480.4
2023-05-17T04:39:32.669Z,1612.7
2023-05-17T04:42:32.687Z,1510.2
2023-05-17T04:45:32.621Z,1542.4
2023-05-17T04:48:32.868Z,1455.1
2023-05-17T04:51:32.660Z,1414.4
2023-05-17T04:54:33.802Z,1427.5
2023-05-17T04:57:32.652Z,1403.7
2023-05-17T05:00:32.740Z,1435.1
2023-05-17T05:03:32.851Z,1491.9
2023-05-17T05:06:32.657Z,1567.1
2023-05-17T05:09:32.632Z,1571.1
2023-05-17T05:12:32.670Z,1610.7
2023-05-17T05:15:33.603Z,1551.3
2023-05-17T05:18:33.089Z,1558.1
2023-05-17T05:21:32.692Z,1547.4
2023-05-17T05:24:32.781Z,1636.2
2023-05-17T05:27:32.687Z,1628.9
2023-05-17T05:30:32.636Z,1598.5
2023-05-17T05:33:33.114Z,1501.2
2023-05-17T05:36:32.623Z,1476.6
2023-05-17T05:39:32.644Z,1355.9
2023-05-17T05:42:32.659Z,1255.9
2023-05-17T05:45:32.644Z,1234.1
2023-05-17T05:48:32.913Z,1193.9
2023-05-17T05:51:32.730Z,1185.5
2023-05-17T05:54:32.772Z,1201.8
2023-05-17T05:57:32.677Z,1222.1
2023-05-17T06:00:32.726Z,1203.0
2023-05-17T06:03:32.694Z,1175.7
2023-05-17T06:06:33.221Z,1148.7
2023-05-17T06:09:32.829Z,1165.2
2023-05-17T06:12:32.640Z,1134.8
2023-05-17T06:15:32.639Z,1128.8
2023-05-17T06:18:33.129Z,1112.3
2023-05-17T06:21:33.669Z,1099.0
2023-05-17T06:24:34.203Z,1085.3
2023-05-17T06:27:32.650Z,1089.4
2023-05-17T06:30:32.963Z,1101.1
2023-05-17T06:33:32.954Z,1100.4
2023-05-17T06:36:33.190Z,1086.7
2023-05-17T06:39:32.653Z,1085.2
2023-05-17T06:42:32.645Z,1073.5
2023-05-17T06:45:32.648Z,1072.0
2023-05-17T06:48:33.207Z,1048.0
2023-05-17T06:51:32.638Z,1053.7
2023-05-17T06:54:32.670Z,1055.7
2023-05-17T06:57:32.805Z,1047.5
2023-05-17T07:00:33.033Z,1050.9
2023-05-17T07:03:34.139Z,1016.5
2023-05-17T07:06:32.707Z,1032.8
2023-05-17T07:09:32.652Z,1008.5
2023-05-17T07:12:32.668Z,1009.8
2023-05-17T07:15:32.714Z,987.6
2023-05-17T07:18:33.052Z,998.3
2023-05-17T07:21:32.699Z,984.5
2023-05-17T07:24:32.823Z,1006.9
2023-05-17T07:27:32.689Z,979.3
2023-05-17T07:30:32.809Z,961.8
2023-05-17T07:33:32.772Z,952.4
2023-05-17T07:36:32.934Z,943.1
2023-05-17T07:39:32.665Z,948.6
2023-05-17T07:42:32.671Z,979.2
2023-05-17T07:45:32.817Z,951.6
2023-05-17T07:48:33.106Z,943.9
2023-05-17T07:51:32.679Z,962.7
2023-05-17T07:54:33.691Z,941.0
2023-05-17T07:57:32.655Z,952.4
2023-05-17T08:00:32.725Z,958.9
2023-05-17T08:03:33.781Z,950.0
2023-05-17T08:06:32.866Z,935.4
2023-05-17T08:09:32.733Z,909.4
2023-05-17T08:12:32.722Z,960.9
2023-05-17T08:15:32.704Z,930.6
2023-05-17T08:18:36.297Z,932.4
2023-05-17T08:21:32.648Z,920.5
2023-05-17T08:24:34.398Z,924.9
2023-05-17T08:27:32.771Z,908.2
2023-05-17T08:30:42.555Z,902.8
2023-05-17T08:33:33.160Z,913.7
2023-05-17T08:36:32.710Z,877.5
2023-05-17T08:39:32.734Z,867.4
2023-05-17T08:42:32.669Z,865.7
2023-05-17T08:45:32.670Z,867.3
2023-05-17T08:48:32.935Z,878.6
2023-05-17T08:51:32.713Z,879.6
2023-05-17T08:54:32.729Z,864.6
2023-05-17T08:57:32.719Z,874.2
2023-05-17T09:00:32.739Z,872.1
2023-05-17T09:03:33.036Z,880.8
2023-05-17T09:06:32.726Z,872.7
2023-05-17T09:09:32.740Z,882.1
2023-05-17T09:12:32.605Z,883.8
2023-05-17T09:15:32.682Z,903.0
2023-05-17T09:18:35.796Z,897.0
2023-05-17T09:21:32.671Z,904.6
2023-05-17T09:24:40.751Z,890.4
2023-05-17T09:27:32.684Z,866.5
2023-05-17T09:30:32.845Z,853.6
2023-05-17T09:33:35.043Z,841.5
2023-05-17T09:36:32.675Z,843.3
2023-05-17T09:39:32.713Z,836.0
2023-05-17T09:42:32.651Z,824.7
2023-05-17T09:45:32.676Z,810.3
2023-05-17T09:48:32.965Z,792.0
2023-05-17T09:51:32.700Z,782.6
2023-05-17T09:54:32.666Z,785.8
2023-05-17T09:57:32.686Z,806.0
2023-05-17T10:00:32.669Z,788.1
2023-05-17T10:03:33.038Z,772.0
2023-05-17T10:06:47.905Z,767.3
2023-05-17T10:09:32.652Z,775.2
2023-05-17T10:12:32.708Z,790.1
2023-05-17T10:15:32.875Z,767.4
2023-05-17T10:18:33.111Z,746.6
2023-05-17T10:21:32.711Z,739.1
2023-05-17T10:24:32.713Z,730.0
2023-05-17T10:27:32.652Z,736.6
2023-05-17T10:30:32.713Z,715.5
2023-05-17T10:33:33.168Z,700.5
2023-05-17T10:36:32.702Z,701.8
2023-05-17T10:39:32.735Z,699.6
2023-05-17T10:42:42.548Z,726.7
2023-05-17T10:45:32.665Z,721.8
2023-05-17T10:48:33.838Z,714.1
2023-05-17T10:51:34.290Z,695.3
2023-05-17T10:54:32.634Z,690.0
2023-05-17T10:57:36.040Z,693.1
2023-05-17T11:00:32.753Z,695.6
2023-05-17T11:03:32.680Z,674.1
2023-05-17T11:06:41.861Z,663.8
2023-05-17T11:09:32.631Z,701.5
2023-05-17T11:12:33.673Z,702.5
2023-05-17T11:15:32.667Z,696.2
2023-05-17T11:18:42.728Z,682.4
2023-05-17T11:21:32.776Z,710.5
2023-05-17T11:24:32.608Z,703.0
2023-05-17T11:27:32.722Z,697.9
2023-05-17T11:30:32.792Z,722.3
2023-05-17T11:33:42.712Z,721.3
2023-05-17T11:36:32.621Z,700.4
2023-05-17T11:39:33.901Z,704.1
2023-05-17T11:42:32.632Z,683.4
2023-05-17T11:45:32.627Z,679.9
2023-05-17T11:48:33.065Z,668.5
2023-05-17T11:51:34.696Z,691.9
2023-05-17T11:54:32.632Z,670.6
2023-05-17T11:57:32.653Z,657.1
2023-05-17T12:00:32.680Z,648.9
2023-05-17T12:03:32.779Z,641.1
2023-05-17T12:06:32.812Z,644.8
2023-05-17T12:09:32.677Z,640.8
2023-05-17T12:12:32.664Z,633.2
2023-05-17T12:15:32.668Z,659.5
2023-05-17T12:18:32.951Z,637.1
2023-05-17T12:21:32.709Z,621.0
2023-05-17T12:24:32.802Z,615.7
2023-05-17T12:27:32.640Z,607.1
2023-05-17T12:30:32.757Z,626.4
2023-05-17T12:33:33.055Z,625.3
2023-05-17T12:36:32.668Z,646.0
2023-05-17T12:39:32.653Z,644.1
2023-05-17T12:42:32.663Z,644.0
2023-05-17T12:45:32.706Z,659.1
2023-05-17T12:48:32.814Z,632.2
2023-05-17T12:51:32.672Z,619.4
2023-05-17T12:54:32.614Z,642.1
2023-05-17T12:57:32.644Z,612.5
2023-05-17T13:00:32.749Z,613.7
2023-05-17T13:03:32.981Z,608.3
2023-05-17T13:06:32.702Z,619.8
2023-05-17T13:09:32.681Z,618.1
2023-05-17T13:12:32.631Z,638.0
2023-05-17T13:15:32.655Z,616.0
2023-05-17T13:18:33.169Z,612.3
2023-05-17T13:21:32.697Z,613.2
2023-05-17T13:24:32.705Z,604.3
2023-05-17T13:27:32.692Z,614.3
2023-05-17T13:30:33.052Z,605.8
2023-05-17T13:33:32.877Z,609.3
2023-05-17T13:36:32.629Z,603.0
2023-05-17T13:39:32.637Z,620.8
2023-05-17T13:42:32.658Z,611.4
2023-05-17T13:45:32.717Z,605.5
2023-05-17T13:48:33.018Z,627.0
2023-05-17T13:51:32.682Z,645.3
2023-05-17T13:54:32.658Z,630.4
2023-05-17T13:57:32.669Z,609.5
2023-05-17T14:00:32.727Z,627.0
2023-05-17T14:03:33.026Z,628.9
2023-05-17T14:06:32.829Z,617.1
2023-05-17T14:09:32.678Z,609.9
2023-05-17T14:12:33.603Z,613.3
2023-05-17T14:15:32.663Z,605.7
2023-05-17T14:18:32.982Z,605.6
2023-05-17T14:21:32.724Z,593.5
2023-05-17T14:24:34.475Z,609.2
2023-05-17T14:27:32.663Z,609.3
2023-05-17T14:30:32.906Z,605.2
2023-05-17T14:33:32.917Z,598.2
2023-05-17T14:36:32.698Z,613.3
2023-05-17T14:39:32.645Z,610.8
2023-05-17T14:42:32.652Z,601.6
2023-05-17T14:45:32.656Z,588.1
2023-05-17T14:48:32.812Z,589.2
2023-05-17T14:51:32.665Z,571.0
2023-05-17T14:54:32.674Z,571.4
2023-05-17T14:57:32.654Z,599.2
2023-05-17T15:00:32.693Z,594.1
2023-05-17T15:03:37.917Z,603.2
2023-05-17T15:06:33.121Z,585.6
2023-05-17T15:09:32.658Z,586.9
2023-05-17T15:12:32.607Z,604.5
2023-05-17T15:15:32.649Z,590.4
2023-05-17T15:18:33.017Z,593.7
2023-05-17T15:21:32.663Z,601.0
2023-05-17T15:24:34.102Z,580.8
2023-05-17T15:27:32.663Z,604.8
2023-05-17T15:30:32.626Z,606.7
2023-05-17T15:33:32.856Z,595.9
2023-05-17T15:36:32.667Z,600.1
2023-05-17T15:39:32.693Z,606.6
2023-05-17T15:42:32.660Z,594.6
2023-05-17T15:45:33.108Z,580.0
2023-05-17T15:48:32.773Z,589.1
2023-05-17T15:51:32.703Z,588.6
2023-05-17T15:54:32.637Z,572.3
2023-05-17T15:57:32.662Z,558.5
2023-05-17T16:00:32.746Z,575.9
2023-05-17T16:03:32.738Z,577.4
2023-05-17T16:06:32.878Z,598.1
2023-05-17T16:09:32.681Z,582.9
2023-05-17T16:12:32.684Z,570.0
2023-05-17T16:15:32.657Z,560.5
2023-05-17T16:18:32.948Z,574.1
2023-05-17T16:21:32.653Z,587.8
2023-05-17T16:24:32.695Z,585.0
2023-05-17T16:27:32.741Z,604.8
2023-05-17T16:30:32.697Z,592.7
2023-05-17T16:33:33.025Z,617.9
2023-05-17T16:36:32.644Z,629.1
2023-05-17T16:39:32.702Z,622.1
2023-05-17T16:42:32.715Z,624.7
2023-05-17T16:45:32.679Z,613.9
2023-05-17T16:48:32.742Z,621.4
2023-05-17T16:51:32.635Z,645.9
2023-05-17T16:54:32.694Z,629.7
2023-05-17T16:57:32.719Z,640.3
2023-05-17T17:00:32.809Z,638.5
2023-05-17T17:03:32.940Z,642.1
2023-05-17T17:06:32.646Z,642.4
2023-05-17T17:09:32.678Z,617.4
2023-05-17T17:12:42.340Z,598.4
2023-05-17T17:15:32.681Z,605.6
2023-05-17T17:18:32.796Z,610.3
2023-05-17T17:21:32.698Z,627.9
2023-05-17T17:24:32.666Z,634.2
2023-05-17T17:27:32.763Z,659.0
2023-05-17T17:30:32.820Z,666.2
2023-05-17T17:33:33.001Z,677.8
2023-05-17T17:36:32.649Z,723.7
2023-05-17T17:39:32.649Z,720.0
2023-05-17T17:42:32.655Z,676.7
2023-05-17T17:45:32.665Z,689.9
2023-05-17T17:48:32.827Z,665.6
2023-05-17T17:51:32.651Z,660.9
2023-05-17T17:54:32.664Z,655.1
2023-05-17T17:57:32.705Z,644.6
2023-05-17T18:00:32.755Z,636.7
2023-05-17T18:03:32.846Z,638.1
2023-05-17T18:06:32.689Z,635.3
2023-05-17T18:09:32.683Z,652.5
2023-05-17T18:12:32.716Z,654.7
2023-05-17T18:15:32.651Z,651.3
2023-05-17T18:18:32.749Z,642.0
2023-05-17T18:21:32.690Z,653.5
2023-05-17T18:24:32.662Z,655.7
2023-05-17T18:27:32.668Z,651.8
2023-05-17T18:30:32.696Z,692.4
2023-05-17T18:33:32.813Z,692.8
2023-05-17T18:36:32.679Z,699.5
2023-05-17T18:39:32.653Z,731.6
2023-05-17T18:42:32.636Z,734.6
2023-05-17T18:45:32.667Z,730.1
2023-05-17T18:48:32.916Z,720.7
2023-05-17T18:51:32.649Z,749.5
2023-05-17T18:54:32.640Z,734.9
2023-05-17T18:57:32.750Z,733.3
2023-05-17T19:00:32.875Z,696.8
2023-05-17T19:03:32.719Z,702.4
2023-05-17T19:06:32.678Z,720.8
2023-05-17T19:09:32.674Z,687.9
2023-05-17T19:12:32.688Z,714.5
2023-05-17T19:15:32.641Z,711.5
2023-05-17T19:18:32.915Z,716.2
2023-05-17T19:21:32.735Z,714.7
2023-05-17T19:24:32.708Z,756.3
2023-05-17T19:27:32.629Z,726.6
2023-05-17T19:30:33.038Z,743.9
2023-05-17T19:33:32.721Z,746.8
2023-05-17T19:36:32.674Z,739.4
2023-05-17T19:39:32.674Z,761.6
2023-05-17T19:42:32.639Z,758.9
2023-05-17T19:45:32.726Z,748.9
2023-05-17T19:48:32.779Z,749.1
2023-05-17T19:51:32.696Z,759.7
2023-05-17T19:54:32.664Z,757.2
2023-05-17T19:57:32.713Z,760.9
2023-05-17T20:00:32.710Z,775.1
2023-05-17T20:03:33.048Z,795.8
2023-05-17T20:06:32.703Z,791.6
2023-05-17T20:09:32.631Z,798.6
2023-05-17T20:12:32.679Z,788.4
2023-05-17T20:15:32.609Z,805.2
2023-05-17T20:18:32.736Z,797.8
2023-05-17T20:21:32.666Z,797.0
2023-05-17T20:24:32.697Z,811.1
2023-05-17T20:27:32.630Z,781.4
2023-05-17T20:30:32.653Z,789.1
2023-05-17T20:33:32.756Z,782.8
2023-05-17T20:36:32.631Z,790.5
2023-05-17T20:39:32.694Z,808.9
2023-05-17T20:42:32.683Z,816.3
2023-05-17T20:45:32.758Z,816.4
2023-05-17T20:48:34.903Z,807.1
2023-05-17T20:51:32.661Z,801.5
2023-05-17T20:54:32.658Z,826.2
2023-05-17T20:57:32.670Z,835.8
2023-05-17T21:00:32.662Z,824.8
2023-05-17T21:03:33.428Z,827.5
2023-05-17T21:06:33.032Z,833.1
2023-05-17T21:09:32.643Z,826.5
2023-05-17T21:12:33.676Z,834.0
2023-05-17T21:15:42.551Z,838.4
2023-05-17T21:18:32.898Z,837.9
2023-05-17T21:21:32.662Z,848.4
2023-05-17T21:24:32.778Z,871.6
2023-05-17T21:27:32.624Z,838.0
2023-05-17T21:30:32.807Z,832.5
2023-05-17T21:33:32.870Z,856.7
2023-05-17T21:36:32.648Z,866.9
2023-05-17T21:39:32.661Z,860.5
2023-05-17T21:42:32.612Z,861.0
2023-05-17T21:45:32.716Z,871.6
2023-05-17T21:48:33.767Z,850.2
2023-05-17T21:51:32.666Z,864.8
2023-05-17T21:54:32.686Z,866.2
2023-05-17T21:57:32.657Z,884.1
2023-05-17T22:00:32.770Z,871.2
2023-05-17T22:03:33.126Z,872.8
2023-05-17T22:06:32.684Z,871.3
2023-05-17T22:09:32.631Z,878.4
2023-05-17T22:12:32.737Z,878.0
2023-05-17T22:15:32.695Z,885.3
2023-05-17T22:18:32.793Z,875.0
2023-05-17T22:21:32.644Z,883.0
2023-05-17T22:24:32.648Z,874.8
2023-05-17T22:27:32.636Z,868.2
2023-05-17T22:30:33.169Z,874.0
2023-05-17T22:33:39.058Z,892.8
2023-05-17T22:36:32.660Z,890.4
2023-05-17T22:39:32.691Z,876.4
2023-05-17T22:42:32.705Z,871.3
2023-05-17T22:45:33.012Z,859.6
2023-05-17T22:48:34.840Z,892.9
2023-05-17T22:51:32.674Z,863.2
2023-05-17T22:54:32.708Z,868.8
2023-05-17T22:57:32.711Z,869.8
2023-05-17T23:00:32.769Z,878.5
2023-05-17T23:03:32.768Z,870.3
2023-05-17T23:06:32.682Z,873.9
2023-05-17T23:09:32.638Z,890.5
2023-05-17T23:12:33.001Z,877.2
2023-05-17T23:15:32.687Z,865.4
2023-05-17T23:18:32.783Z,863.7
2023-05-17T23:21:32.612Z,875.3
2023-05-17T23:24:32.673Z,883.0
2023-05-17T23:27:32.681Z,877.8
2023-05-17T23:30:32.684Z,883.8
2023-05-17T23:33:32.778Z,871.7
2023-05-17T23:36:32.623Z,893.9
2023-05-17T23:39:32.713Z,890.7
2023-05-17T23:42:32.640Z,906.4
2023-05-17T23:45:32.681Z,898.2
2023-05-17T23:48:33.226Z,903.7
2023-05-17T23:51:32.683Z,921.6
2023-05-17T23:54:32.654Z,927.3
2023-05-17T23:57:32.658Z,925.9
